Terminal Aerodrome Forecast
Issued by NWS Albany, NY

Home | Current Version | Previous Version | Text Only | Print | Product List | Glossary On
Versions: 1 2 3 4 5 6 7 8 9 10 11 12 13 14 15
779
FTUS41 KALY 260522
TAFGFL
TAF
KGFL 260522Z 2606/2706 23004KT P6SM FEW150
      TEMPO 2608/2610 00000KT 4SM BR SCT015
     FM261100 22005KT P6SM SCT030
     FM261500 22007KT P6SM BKN050 PROB30 2617/2623 4SM -TSRA BR
      OVC025CB
     FM270000 00000KT P6SM BKN070 PROB30 2700/2705 4SM -SHRA BR
      OVC040=

USA.gov is the U.S. government's official web portal to all federal, state and local government web resources and services.